Time,TemperatureF,DewpointF,PressureIn,WindDirection,WindDirectionDegrees,WindSpeedMPH,WindSpeedGustMPH,Humidity,HourlyPrecipIn,Conditions,Clouds,dailyrainin,SoftwareType,DateUTC
2013-01-25 00:01:00,27.0,24.0,-100.00,East,100,1.0,3.0,88,-99.99,,,-99.99,,2013-01-25 08:01:00,
2013-01-25 00:11:00,27.0,24.0,-100.00,East,100,1.0,3.0,88,-99.99,,,-99.99,,2013-01-25 08:11:00,
2013-01-25 01:01:00,26.0,23.0,-100.00,ENE,70,0.0,1.0,88,-99.99,,,-99.99,,2013-01-25 09:01:00,
2013-01-25 01:10:00,25.0,23.0,-100.00,North,-999,0.0,0.0,91,-99.99,,,-99.99,,2013-01-25 09:10:00,
2013-01-25 01:11:00,26.0,23.0,-100.00,ENE,70,0.0,1.0,88,-99.99,,,-99.99,,2013-01-25 09:11:00,
2013-01-25 02:01:00,25.0,23.0,-100.00,North,-999,0.0,0.0,91,-99.99,,,-99.99,,2013-01-25 10:01:00,
2013-01-25 03:02:00,25.0,23.0,-100.00,South,190,1.0,3.0,91,-99.99,,,-99.99,,2013-01-25 11:02:00,
2013-01-25 03:11:00,25.0,23.0,-100.00,South,190,1.0,3.0,91,-99.99,,,-99.99,,2013-01-25 11:11:00,
2013-01-25 04:02:00,24.0,22.0,-100.00,NW,305,1.0,2.0,91,-99.99,,,-99.99,,2013-01-25 12:02:00,
2013-01-25 05:02:00,24.0,21.0,-100.00,South,175,0.0,1.0,88,-99.99,,,-99.99,,2013-01-25 13:02:00,
2013-01-25 05:10:00,24.0,22.0,-100.00,NE,40,1.0,2.0,91,-99.99,,,-99.99,,2013-01-25 13:10:00,
2013-01-25 05:11:00,24.0,21.0,-100.00,South,175,0.0,1.0,88,-99.99,,,-99.99,,2013-01-25 13:11:00,
2013-01-25 06:02:00,24.0,22.0,-100.00,NE,40,1.0,2.0,91,-99.99,,,-99.99,,2013-01-25 14:02:00,
2013-01-25 07:02:00,23.0,21.0,-100.00,WSW,250,0.0,1.0,91,-99.99,,,-99.99,,2013-01-25 15:02:00,
2013-01-25 07:12:00,23.0,21.0,-100.00,WSW,250,0.0,1.0,91,-99.99,,,-99.99,,2013-01-25 15:12:00,
2013-01-25 08:03:00,23.0,21.0,-100.00,South,180,2.0,6.0,91,-99.99,,,-99.99,,2013-01-25 16:03:00,
2013-01-25 08:10:00,23.0,21.0,-100.00,NNW,340,0.0,3.0,91,-99.99,,,-99.99,,2013-01-25 16:10:00,
2013-01-25 09:02:00,23.0,21.0,-100.00,NNW,340,0.0,3.0,91,-99.99,,,-99.99,,2013-01-25 17:02:00,
2013-01-25 10:02:00,24.0,21.0,-100.00,SSW,195,0.0,1.0,88,-99.99,,,-99.99,,2013-01-25 18:02:00,
2013-01-25 10:10:00,26.0,23.0,-100.00,SE,130,1.0,2.0,88,-99.99,,,-99.99,,2013-01-25 18:10:00,
2013-01-25 11:00:00,29.0,24.0,-100.00,NE,40,1.0,2.0,81,-99.99,,,-99.99,,2013-01-25 19:00:00,
2013-01-25 11:02:00,26.0,23.0,-100.00,SE,130,1.0,2.0,88,-99.99,,,-99.99,,2013-01-25 19:02:00,
2013-01-25 12:10:00,32.0,24.0,-100.00,North,5,1.0,3.0,72,-99.99,,,-99.99,,2013-01-25 20:10:00,
2013-01-25 13:02:00,32.0,24.0,-100.00,North,5,1.0,3.0,72,-99.99,,,-99.99,,2013-01-25 21:02:00,
2013-01-25 13:20:00,34.0,25.0,-100.00,West,275,5.0,8.0,69,-99.99,,,-99.99,,2013-01-25 21:20:00,
2013-01-25 14:02:00,34.0,25.0,-100.00,West,275,5.0,8.0,69,-99.99,,,-99.99,,2013-01-25 22:02:00,
2013-01-25 14:10:00,34.0,25.0,-100.00,West,260,3.0,6.0,69,-99.99,,,-99.99,,2013-01-25 22:10:00,
2013-01-25 14:11:00,34.0,25.0,-100.00,West,275,5.0,8.0,69,-99.99,,,-99.99,,2013-01-25 22:11:00,
2013-01-25 15:02:00,34.0,25.0,-100.00,West,260,3.0,6.0,69,-99.99,,,-99.99,,2013-01-25 23:02:00,
2013-01-25 16:01:00,33.0,25.0,-100.00,SW,220,1.0,6.0,72,-99.99,,,-99.99,,2013-01-26 00:01:00,
2013-01-25 16:10:00,33.0,25.0,-100.00,WNW,285,3.0,6.0,72,-99.99,,,-99.99,,2013-01-26 00:10:00,
2013-01-25 16:11:00,33.0,25.0,-100.00,SW,220,1.0,6.0,72,-99.99,,,-99.99,,2013-01-26 00:11:00,
2013-01-25 17:01:00,33.0,25.0,-100.00,WNW,285,3.0,6.0,72,-99.99,,,-99.99,,2013-01-26 01:01:00,
2013-01-25 18:01:00,32.0,25.0,-100.00,WSW,240,5.0,7.0,75,-99.99,,,-99.99,,2013-01-26 02:01:00,
2013-01-25 18:11:00,32.0,25.0,-100.00,WSW,240,5.0,7.0,75,-99.99,,,-99.99,,2013-01-26 02:11:00,
2013-01-25 19:01:00,32.0,26.0,-100.00,SSW,200,1.0,3.0,78,-99.99,,,-99.99,,2013-01-26 03:01:00,
2013-01-25 20:01:00,30.0,26.0,-100.00,SSE,160,0.0,2.0,84,-99.99,,,-99.99,,2013-01-26 04:01:00,
2013-01-25 20:12:00,30.0,26.0,-100.00,SSE,160,0.0,2.0,84,-99.99,,,-99.99,,2013-01-26 04:12:00,
2013-01-25 21:03:00,29.0,26.0,-100.00,NE,55,0.0,3.0,88,-99.99,,,-99.99,,2013-01-26 05:03:00,
2013-01-25 22:02:00,28.0,25.0,-100.00,WSW,245,1.0,2.0,88,-99.99,,,-99.99,,2013-01-26 06:02:00,
2013-01-25 22:12:00,28.0,25.0,-100.00,WSW,245,1.0,2.0,88,-99.99,,,-99.99,,2013-01-26 06:12:00,